createdAt,value
2018-11-06T00:02:14.241Z,30.33
2018-11-06T00:04:54.788Z,32.03
2018-11-06T00:07:28.054Z,31.43
2018-11-06T00:10:00.647Z,31.33
2018-11-06T00:12:33.952Z,31.15
2018-11-06T00:15:08.775Z,29.63
2018-11-06T00:17:41.259Z,32.83
2018-11-06T00:20:14.695Z,31.93
2018-11-06T00:22:49.722Z,34.53
2018-11-06T00:25:23.851Z,29.63
2018-11-06T00:27:57.769Z,31.50
2018-11-06T00:30:31.176Z,32.00
2018-11-06T00:33:05.508Z,30.10
2018-11-06T00:35:38.322Z,31.40
2018-11-06T00:38:11.125Z,33.13
2018-11-06T00:40:43.687Z,36.93
2018-11-06T00:43:16.290Z,34.30
2018-11-06T00:45:49.888Z,32.03
2018-11-06T00:48:22.910Z,33.00
2018-11-06T00:50:56.416Z,32.03
2018-11-06T00:53:29.223Z,33.50
2018-11-06T00:56:02.761Z,34.83
2018-11-06T00:58:35.237Z,37.43
2018-11-06T01:01:08.187Z,35.27
2018-11-06T01:03:46.159Z,29.65
2018-11-06T01:06:19.509Z,31.70
2018-11-06T01:08:52.479Z,29.87
2018-11-06T01:11:25.098Z,30.50
2018-11-06T01:13:57.864Z,34.90
2018-11-06T01:16:33.114Z,36.00
2018-11-06T01:19:06.970Z,34.20
2018-11-06T01:21:39.934Z,37.93
2018-11-06T01:24:13.089Z,38.37
2018-11-06T01:26:45.922Z,32.83
2018-11-06T01:29:18.453Z,30.73
2018-11-06T01:31:51.397Z,36.87
2018-11-06T01:34:25.058Z,31.20
2018-11-06T01:36:58.676Z,35.70
2018-11-06T01:39:33.100Z,37.77
2018-11-06T01:42:05.814Z,41.63
2018-11-06T01:44:38.357Z,36.10
2018-11-06T01:47:11.387Z,35.97
2018-11-06T01:49:44.021Z,32.03
2018-11-06T01:52:16.598Z,37.07
2018-11-06T01:54:49.594Z,32.53
2018-11-06T01:57:22.849Z,38.20
2018-11-06T01:59:55.509Z,33.10
2018-11-06T02:02:28.581Z,35.77
2018-11-06T02:05:01.558Z,31.07
2018-11-06T02:07:34.212Z,34.10
2018-11-06T02:10:09.481Z,31.83
2018-11-06T02:12:43.062Z,31.03
2018-11-06T02:15:17.295Z,34.57
2018-11-06T02:17:53.510Z,32.03
2018-11-06T02:20:27.680Z,36.50
2018-11-06T02:23:01.903Z,33.97
2018-11-06T02:25:34.890Z,34.87
2018-11-06T02:28:07.743Z,39.60
2018-11-06T02:30:41.609Z,36.67
2018-11-06T02:33:14.462Z,34.70
2018-11-06T02:36:09.734Z,35.97
2018-11-06T02:38:43.178Z,36.13
2018-11-06T02:41:20.955Z,35.67
2018-11-06T02:43:53.522Z,36.57
2018-11-06T02:46:26.100Z,31.35
2018-11-06T02:48:59.000Z,33.10
2018-11-06T02:51:31.683Z,35.70
2018-11-06T02:54:04.434Z,31.03
2018-11-06T02:56:45.229Z,31.77
2018-11-06T02:59:17.721Z,33.97
2018-11-06T03:01:50.378Z,35.53
2018-11-06T03:04:23.318Z,31.80
2018-11-06T03:06:56.334Z,36.50
2018-11-06T03:09:28.866Z,33.17
2018-11-06T03:12:02.405Z,32.57
2018-11-06T03:14:35.194Z,31.60
2018-11-06T03:17:07.894Z,32.27
2018-11-06T03:19:40.879Z,27.80
2018-11-06T03:22:13.435Z,28.03
2018-11-06T03:24:46.021Z,25.23
2018-11-06T03:27:19.016Z,25.93
2018-11-06T03:29:51.502Z,23.30
2018-11-06T03:32:24.076Z,25.63
2018-11-06T03:34:57.132Z,25.95
2018-11-06T03:37:30.622Z,24.47
2018-11-06T03:40:06.073Z,22.13
2018-11-06T03:42:39.841Z,25.40
2018-11-06T03:45:14.310Z,22.17
2018-11-06T03:47:47.518Z,25.27
2018-11-06T03:50:20.492Z,21.53
2018-11-06T03:52:53.742Z,20.37
2018-11-06T03:55:26.202Z,22.73
2018-11-06T03:57:59.037Z,21.43
2018-11-06T04:00:31.524Z,20.87
2018-11-06T04:03:04.092Z,20.53
2018-11-06T04:05:36.948Z,21.07
2018-11-06T04:08:09.562Z,22.80
2018-11-06T04:10:42.757Z,20.20
2018-11-06T04:13:20.724Z,20.10
2018-11-06T04:15:53.905Z,17.97
2018-11-06T04:18:27.000Z,18.17
2018-11-06T04:20:59.777Z,20.67
2018-11-06T04:23:40.546Z,19.63
2018-11-06T04:26:13.590Z,19.43
2018-11-06T04:28:47.426Z,20.53
2018-11-06T04:31:20.154Z,17.83
2018-11-06T04:33:52.758Z,16.23
2018-11-06T04:36:25.702Z,16.50
2018-11-06T04:38:58.763Z,17.13
2018-11-06T04:41:31.490Z,17.67
2018-11-06T04:44:05.235Z,17.40
2018-11-06T04:46:37.863Z,19.87
2018-11-06T04:49:10.461Z,17.47
2018-11-06T04:51:45.037Z,15.83
2018-11-06T04:54:17.911Z,17.27
2018-11-06T04:56:52.013Z,15.97
2018-11-06T04:59:24.947Z,18.20
2018-11-06T05:01:57.700Z,15.23
2018-11-06T05:04:29.414Z,15.43
2018-11-06T05:07:03.774Z,16.60
2018-11-06T05:09:37.638Z,17.55
2018-11-06T05:12:10.670Z,18.20
2018-11-06T05:14:43.644Z,20.73
2018-11-06T05:17:17.487Z,17.27
2018-11-06T05:19:50.128Z,19.77
2018-11-06T05:22:24.378Z,18.80
2018-11-06T05:24:58.036Z,16.47
2018-11-06T05:27:30.885Z,16.70
2018-11-06T05:30:06.794Z,19.03
2018-11-06T05:32:40.630Z,18.77
2018-11-06T05:35:13.537Z,18.70
2018-11-06T05:37:46.022Z,18.53
2018-11-06T05:40:41.094Z,17.63
2018-11-06T05:43:15.145Z,16.27
2018-11-06T05:45:49.724Z,18.60
2018-11-06T05:48:23.457Z,17.63
2018-11-06T05:50:56.395Z,17.83
2018-11-06T05:53:31.224Z,15.83
2018-11-06T05:56:04.205Z,13.77
2018-11-06T05:58:37.555Z,14.10
2018-11-06T06:01:10.090Z,13.90
2018-11-06T06:03:44.340Z,16.47
2018-11-06T06:06:16.923Z,14.80
2018-11-06T06:08:50.675Z,13.23
2018-11-06T06:11:23.765Z,12.50
2018-11-06T06:13:56.289Z,13.33
2018-11-06T06:16:28.919Z,14.40
2018-11-06T06:19:02.993Z,11.37
2018-11-06T06:21:37.314Z,13.20
2018-11-06T06:24:09.826Z,11.57
2018-11-06T06:26:42.916Z,11.80
2018-11-06T06:29:15.461Z,10.23
2018-11-06T06:31:50.458Z,11.10
2018-11-06T06:34:23.062Z,10.73
2018-11-06T06:36:58.748Z,10.00
2018-11-06T06:39:31.295Z,12.33
2018-11-06T06:42:04.962Z,12.17
2018-11-06T06:44:37.698Z,16.53
2018-11-06T06:47:10.190Z,15.83
2018-11-06T06:49:43.486Z,13.30
2018-11-06T06:52:16.968Z,17.10
2018-11-06T06:54:50.051Z,11.90
2018-11-06T06:57:23.977Z,13.90
2018-11-06T06:59:58.886Z,12.10
2018-11-06T07:02:34.671Z,13.97
2018-11-06T07:05:12.584Z,12.40
2018-11-06T07:07:45.289Z,12.60
2018-11-06T07:10:20.849Z,12.80
2018-11-06T07:12:55.472Z,14.97
2018-11-06T07:15:30.010Z,11.87
2018-11-06T07:18:02.709Z,14.67
2018-11-06T07:20:35.278Z,22.10
2018-11-06T07:23:09.862Z,14.57
2018-11-06T07:25:42.926Z,16.47
2018-11-06T07:28:18.176Z,16.90
2018-11-06T07:30:50.859Z,15.37
2018-11-06T07:33:24.870Z,15.73
2018-11-06T07:35:59.039Z,16.53
2018-11-06T07:38:32.804Z,19.53
2018-11-06T07:41:05.876Z,17.27
2018-11-06T07:43:40.335Z,24.87
2018-11-06T07:46:29.792Z,21.30
2018-11-06T07:49:02.338Z,21.93
2018-11-06T07:51:37.887Z,24.10
2018-11-06T07:54:10.582Z,22.43
2018-11-06T07:56:46.671Z,20.47
2018-11-06T07:59:21.133Z,19.90
2018-11-06T08:01:53.786Z,19.08
2018-11-06T08:04:26.850Z,19.97
2018-11-06T08:07:20.211Z,19.52
2018-11-06T08:09:54.026Z,19.98
2018-11-06T08:12:27.586Z,20.67
2018-11-06T08:15:00.320Z,19.33
2018-11-06T08:17:35.226Z,20.93
2018-11-06T08:20:12.900Z,19.57
2018-11-06T08:22:48.332Z,21.17
2018-11-06T08:25:21.512Z,19.30
2018-11-06T08:27:56.359Z,19.43
2018-11-06T08:30:29.928Z,19.90
2018-11-06T08:33:09.833Z,18.70
2018-11-06T08:35:43.338Z,17.60
2018-11-06T08:38:16.538Z,16.73
2018-11-06T08:40:52.110Z,17.70
2018-11-06T08:43:27.266Z,20.90
2018-11-06T08:46:00.528Z,17.53
2018-11-06T08:48:37.299Z,16.87
2018-11-06T08:51:13.294Z,19.30
2018-11-06T08:53:51.714Z,17.57
2018-11-06T08:56:26.842Z,19.07
2018-11-06T08:59:01.502Z,16.93
2018-11-06T09:01:37.249Z,17.93
2018-11-06T09:04:10.788Z,13.43
2018-11-06T09:06:44.592Z,14.17
2018-11-06T09:09:17.853Z,16.90
2018-11-06T09:11:50.462Z,14.33
2018-11-06T09:14:24.467Z,16.13
2018-11-06T09:16:57.474Z,13.63
2018-11-06T09:19:31.074Z,12.57
2018-11-06T09:22:04.234Z,15.73
2018-11-06T09:24:38.208Z,16.43
2018-11-06T09:27:12.125Z,16.07
2018-11-06T09:29:46.435Z,22.17
2018-11-06T09:32:20.824Z,16.75
2018-11-06T09:34:54.664Z,15.57
2018-11-06T09:37:27.527Z,12.83
2018-11-06T09:40:04.530Z,15.00
2018-11-06T09:42:39.062Z,17.07
2018-11-06T09:45:17.600Z,14.70
2018-11-06T09:47:52.074Z,14.07
2018-11-06T09:50:28.678Z,12.83
2018-11-06T09:53:01.725Z,13.35
2018-11-06T09:55:36.767Z,13.97
2018-11-06T09:58:09.990Z,12.60
2018-11-06T10:00:45.482Z,11.53
2018-11-06T10:03:18.667Z,13.40
2018-11-06T10:05:56.334Z,14.17
2018-11-06T10:08:32.869Z,13.70
2018-11-06T10:11:08.270Z,13.07
2018-11-06T10:13:41.990Z,13.90
2018-11-06T10:16:16.364Z,11.77
2018-11-06T10:18:56.625Z,14.80
2018-11-06T10:21:32.273Z,13.90
2018-11-06T10:24:06.584Z,12.77
2018-11-06T10:26:43.366Z,11.93
2018-11-06T10:29:16.842Z,12.93
2018-11-06T10:31:50.969Z,10.60
2018-11-06T10:34:23.682Z,8.90
2018-11-06T10:36:56.429Z,10.67
2018-11-06T10:39:38.710Z,9.07
2018-11-06T10:42:12.643Z,7.63
2018-11-06T10:44:45.989Z,10.23
2018-11-06T10:47:25.053Z,10.82
2018-11-06T10:50:01.813Z,7.83
2018-11-06T10:52:35.945Z,9.70
2018-11-06T10:55:12.492Z,11.23
2018-11-06T10:57:55.034Z,8.10
2018-11-06T11:00:33.735Z,8.50
2018-11-06T11:03:11.997Z,8.83
2018-11-06T11:05:45.066Z,9.10
2018-11-06T11:08:19.112Z,7.93
2018-11-06T11:10:52.693Z,8.03
2018-11-06T11:13:27.858Z,11.30
2018-11-06T11:16:03.589Z,8.07
2018-11-06T11:18:38.604Z,8.70
2018-11-06T11:21:16.017Z,10.33
2018-11-06T11:23:54.110Z,7.40
2018-11-06T11:26:28.999Z,6.72
2018-11-06T11:29:02.714Z,6.50
2018-11-06T11:31:37.478Z,5.77
2018-11-06T11:34:11.442Z,4.30
2018-11-06T11:36:52.911Z,8.00
2018-11-06T11:39:32.609Z,7.67
2018-11-06T11:42:07.453Z,5.37
2018-11-06T11:44:46.527Z,6.72
2018-11-06T11:47:23.870Z,5.60
2018-11-06T11:49:58.761Z,5.70
2018-11-06T11:52:33.586Z,7.37
2018-11-06T11:55:07.250Z,6.90
2018-11-06T11:57:41.233Z,5.13
2018-11-06T12:00:18.837Z,5.07
2018-11-06T12:02:53.478Z,5.77
2018-11-06T12:05:30.647Z,4.80
2018-11-06T12:08:04.367Z,4.90
2018-11-06T12:10:38.571Z,7.30
2018-11-06T12:13:12.796Z,6.47
2018-11-06T12:15:51.162Z,6.67
2018-11-06T12:18:25.167Z,6.12
2018-11-06T12:21:00.323Z,6.27
2018-11-06T12:23:37.641Z,5.57
2018-11-06T12:26:14.278Z,6.47
2018-11-06T12:28:51.906Z,5.57
2018-11-06T12:31:29.739Z,4.80
2018-11-06T12:34:03.359Z,4.68
2018-11-06T12:36:42.670Z,5.93
2018-11-06T12:39:16.657Z,5.07
2018-11-06T12:41:49.989Z,4.23
2018-11-06T12:44:22.707Z,7.53
2018-11-06T12:46:56.809Z,6.00
2018-11-06T12:49:31.610Z,3.53
2018-11-06T12:52:13.756Z,5.13
2018-11-06T12:54:52.655Z,4.30
2018-11-06T12:57:28.744Z,5.87
2018-11-06T13:00:05.335Z,4.87
2018-11-06T13:02:39.348Z,4.07
2018-11-06T13:05:17.336Z,4.57
2018-11-06T13:07:52.007Z,4.97
2018-11-06T13:10:29.498Z,2.73
2018-11-06T13:13:08.534Z,4.13
2018-11-06T13:15:45.800Z,4.53
2018-11-06T13:18:20.767Z,4.77
2018-11-06T13:20:55.057Z,3.53
2018-11-06T13:23:31.777Z,4.70
2018-11-06T13:26:06.138Z,6.53
2018-11-06T13:28:41.851Z,3.93
2018-11-06T13:31:15.886Z,4.27
2018-11-06T13:33:55.543Z,4.67
2018-11-06T13:36:29.577Z,8.10
2018-11-06T13:39:09.554Z,3.30
2018-11-06T13:41:45.725Z,3.87
2018-11-06T13:44:24.507Z,2.97
2018-11-06T13:47:02.715Z,5.17
2018-11-06T13:49:39.018Z,3.72
2018-11-06T13:52:13.238Z,3.73
2018-11-06T13:54:48.151Z,2.60
2018-11-06T13:57:22.030Z,4.17
2018-11-06T13:59:59.086Z,3.20
2018-11-06T14:02:34.610Z,3.63
2018-11-06T14:05:09.809Z,5.70
2018-11-06T14:07:43.208Z,2.87
2018-11-06T14:10:17.700Z,4.77
2018-11-06T14:12:51.323Z,2.90
2018-11-06T14:15:27.459Z,5.83
2018-11-06T14:18:03.239Z,2.80
2018-11-06T14:20:56.513Z,3.87
2018-11-06T14:23:35.825Z,4.12
2018-11-06T14:26:10.984Z,3.05
2018-11-06T14:28:46.899Z,3.40
2018-11-06T14:31:21.919Z,3.80
2018-11-06T14:33:59.643Z,4.73
2018-11-06T14:36:34.647Z,3.70
2018-11-06T14:39:20.681Z,3.17
2018-11-06T14:41:54.671Z,4.13
2018-11-06T14:44:28.613Z,3.77
2018-11-06T14:47:03.210Z,3.57
2018-11-06T14:49:41.695Z,4.40
2018-11-06T14:52:28.079Z,4.00
2018-11-06T14:55:03.066Z,6.23
2018-11-06T14:57:36.056Z,4.40
2018-11-06T15:00:19.282Z,6.27
2018-11-06T15:02:56.768Z,6.30
2018-11-06T15:05:37.701Z,4.00
2018-11-06T15:08:12.924Z,5.77
2018-11-06T15:10:47.422Z,4.50
2018-11-06T15:13:27.088Z,5.03
2018-11-06T15:16:05.531Z,7.43
2018-11-06T15:18:43.728Z,9.50
2018-11-06T15:23:59.720Z,4.03
2018-11-06T15:26:40.929Z,6.23
2018-11-06T15:29:16.427Z,4.00
2018-11-06T15:31:52.386Z,6.07
2018-11-06T15:34:26.642Z,4.10
2018-11-06T15:36:59.569Z,4.87
2018-11-06T15:39:38.765Z,6.67
2018-11-06T15:42:17.056Z,3.47
2018-11-06T15:44:52.882Z,4.97
2018-11-06T15:47:27.474Z,3.17
2018-11-06T15:50:02.440Z,3.43
2018-11-06T15:52:38.727Z,4.30
2018-11-06T15:55:13.732Z,6.50
2018-11-06T15:57:54.770Z,3.87
2018-11-06T16:00:33.308Z,4.70
2018-11-06T16:03:07.666Z,4.07
2018-11-06T16:05:43.047Z,3.73
2018-11-06T16:08:21.499Z,3.03
2018-11-06T16:10:57.510Z,4.23
2018-11-06T16:13:34.396Z,3.27
2018-11-06T16:16:10.209Z,6.07
2018-11-06T16:18:45.506Z,7.07
2018-11-06T16:21:24.616Z,7.23
2018-11-06T16:24:00.052Z,4.73
2018-11-06T16:26:39.503Z,7.60
2018-11-06T16:29:19.412Z,4.77
2018-11-06T16:31:54.390Z,3.97
2018-11-06T16:34:30.373Z,5.93
2018-11-06T16:37:06.829Z,5.77
2018-11-06T16:39:51.207Z,5.63
2018-11-06T16:42:30.558Z,5.97
2018-11-06T16:45:18.333Z,6.20
2018-11-06T16:47:54.318Z,4.23
2018-11-06T16:50:33.931Z,6.60
2018-11-06T16:53:10.800Z,5.73
2018-11-06T16:55:48.810Z,4.37
2018-11-06T16:58:22.152Z,5.20
2018-11-06T17:01:01.845Z,3.97
2018-11-06T17:03:39.521Z,4.33
2018-11-06T17:06:21.714Z,4.27
2018-11-06T17:08:55.415Z,4.80
2018-11-06T17:11:30.602Z,5.57
2018-11-06T17:14:09.278Z,4.17
2018-11-06T17:16:46.366Z,7.03
2018-11-06T17:19:20.988Z,4.90
2018-11-06T17:21:56.518Z,4.37
2018-11-06T17:24:34.812Z,4.80
2018-11-06T17:27:10.279Z,4.37
2018-11-06T17:29:45.677Z,6.93
2018-11-06T17:32:20.939Z,5.37
2018-11-06T17:35:00.238Z,6.93
2018-11-06T17:37:37.884Z,5.70
2018-11-06T17:40:17.795Z,6.20
2018-11-06T17:42:56.355Z,4.22
2018-11-06T17:45:39.617Z,6.93
2018-11-06T17:48:19.506Z,5.20
2018-11-06T17:51:00.771Z,5.93
2018-11-06T17:53:37.253Z,5.10
2018-11-06T17:56:14.630Z,7.03
2018-11-06T17:58:49.413Z,5.80
2018-11-06T18:01:25.093Z,4.80
2018-11-06T18:04:02.646Z,8.33
2018-11-06T18:06:52.456Z,6.30
2018-11-06T18:09:33.050Z,5.70
2018-11-06T18:12:08.190Z,8.13
2018-11-06T18:14:57.431Z,8.23
2018-11-06T18:17:34.287Z,7.20
2018-11-06T18:20:13.929Z,6.03
2018-11-06T18:22:48.322Z,5.33
2018-11-06T18:25:32.693Z,6.67
2018-11-06T18:28:11.950Z,5.50
2018-11-06T18:30:47.497Z,6.55
2018-11-06T18:33:23.636Z,7.90
2018-11-06T18:36:07.218Z,7.10
2018-11-06T18:38:49.434Z,7.93
2018-11-06T18:41:27.102Z,8.27
2018-11-06T18:44:08.267Z,6.77
2018-11-06T18:46:42.547Z,7.93
2018-11-06T18:49:19.366Z,5.83
2018-11-06T18:51:54.423Z,11.53
2018-11-06T18:54:37.367Z,8.17
2018-11-06T18:57:16.283Z,9.63
2018-11-06T19:00:04.231Z,8.33
2018-11-06T19:02:48.506Z,7.33
2018-11-06T19:05:28.839Z,8.27
2018-11-06T19:08:10.699Z,9.07
2018-11-06T19:10:48.349Z,8.07
2018-11-06T19:13:23.898Z,8.10
2018-11-06T19:16:01.067Z,7.60
2018-11-06T19:18:37.849Z,7.37
2018-11-06T19:21:19.405Z,7.80
2018-11-06T19:24:00.824Z,8.60
2018-11-06T19:26:36.684Z,10.90
2018-11-06T19:29:23.609Z,11.40
2018-11-06T19:31:59.356Z,10.90
2018-11-06T19:34:42.625Z,10.93
2018-11-06T19:37:27.294Z,10.80
2018-11-06T19:40:01.631Z,11.97
2018-11-06T19:42:37.595Z,10.57
2018-11-06T19:45:18.898Z,11.07
2018-11-06T19:47:54.419Z,9.80
2018-11-06T19:50:47.342Z,9.77
2018-11-06T19:53:25.833Z,11.37
2018-11-06T19:56:01.943Z,12.77
2018-11-06T19:58:48.185Z,14.20
2018-11-06T20:01:31.783Z,13.47
2018-11-06T20:04:12.521Z,12.23
2018-11-06T20:06:47.665Z,11.27
2018-11-06T20:09:27.114Z,10.87
2018-11-06T20:12:08.610Z,11.03
2018-11-06T20:14:44.916Z,11.13
2018-11-06T20:17:24.583Z,11.00
2018-11-06T20:20:00.547Z,11.60
2018-11-06T20:22:41.253Z,14.17
2018-11-06T20:25:29.751Z,10.10
2018-11-06T20:28:06.732Z,10.48
2018-11-06T20:30:44.101Z,13.07
2018-11-06T20:33:20.703Z,12.13
2018-11-06T20:36:25.081Z,10.32
2018-11-06T20:39:11.518Z,11.43
2018-11-06T20:41:51.412Z,11.87
2018-11-06T20:44:30.342Z,10.33
2018-11-06T20:47:05.292Z,10.53
2018-11-06T20:52:40.193Z,9.07
2018-11-06T20:55:17.670Z,10.03
2018-11-06T20:57:57.214Z,12.60
2018-11-06T21:00:34.969Z,12.17
2018-11-06T21:03:21.837Z,13.57
2018-11-06T21:05:56.431Z,9.50
2018-11-06T21:08:31.659Z,11.37
2018-11-06T21:11:07.296Z,12.90
2018-11-06T21:13:47.804Z,12.07
2018-11-06T21:16:22.587Z,10.77
2018-11-06T21:19:01.447Z,13.97
2018-11-06T21:21:38.324Z,12.27
2018-11-06T21:24:13.747Z,11.53
2018-11-06T21:26:51.374Z,11.73
2018-11-06T21:29:29.659Z,11.20
2018-11-06T21:32:09.123Z,14.60
2018-11-06T21:34:48.368Z,10.13
2018-11-06T21:37:29.443Z,12.93
2018-11-06T21:40:07.994Z,12.20
2018-11-06T21:42:42.839Z,10.43
2018-11-06T21:45:18.158Z,10.80
2018-11-06T21:47:59.215Z,11.03
2018-11-06T21:50:33.171Z,10.93
2018-11-06T21:53:10.238Z,11.30
2018-11-06T21:55:46.214Z,11.13
2018-11-06T21:58:24.453Z,13.10
2018-11-06T22:01:09.470Z,12.60
2018-11-06T22:03:45.533Z,12.47
2018-11-06T22:06:21.078Z,11.07
2018-11-06T22:08:56.450Z,13.47
2018-11-06T22:11:33.030Z,12.90
2018-11-06T22:14:09.538Z,14.10
2018-11-06T22:16:45.071Z,11.10
2018-11-06T22:19:23.183Z,13.53
2018-11-06T22:22:00.514Z,11.57
2018-11-06T22:24:35.681Z,13.70
2018-11-06T22:27:11.634Z,14.27
2018-11-06T22:29:48.045Z,13.00
2018-11-06T22:32:22.549Z,12.63
2018-11-06T22:34:59.817Z,13.77
2018-11-06T22:37:34.422Z,14.17
2018-11-06T22:40:10.474Z,13.50
2018-11-06T22:42:48.917Z,18.13
2018-11-06T22:45:29.177Z,14.77
2018-11-06T22:48:04.774Z,15.07
2018-11-06T22:50:39.079Z,15.83
2018-11-06T22:53:14.137Z,12.77
2018-11-06T22:55:48.310Z,14.37
2018-11-06T22:58:23.971Z,14.07
2018-11-06T23:01:04.361Z,14.03
2018-11-06T23:03:41.392Z,13.03
2018-11-06T23:06:16.094Z,13.27
2018-11-06T23:08:53.299Z,11.85
2018-11-06T23:11:29.490Z,16.07
2018-11-06T23:14:02.783Z,13.30
2018-11-06T23:16:36.474Z,12.00
2018-11-06T23:19:09.285Z,14.13
2018-11-06T23:21:43.211Z,11.17
2018-11-06T23:24:21.498Z,14.87
2018-11-06T23:26:58.322Z,11.57
2018-11-06T23:29:32.095Z,12.43
2018-11-06T23:32:05.022Z,10.50
2018-11-06T23:34:40.276Z,12.20
2018-11-06T23:37:14.601Z,11.27
2018-11-06T23:39:48.658Z,10.23
2018-11-06T23:42:24.166Z,10.80
2018-11-06T23:44:57.737Z,12.87
2018-11-06T23:47:30.566Z,12.17
2018-11-06T23:50:03.809Z,13.80
2018-11-06T23:52:38.469Z,11.13
2018-11-06T23:55:12.621Z,12.97
2018-11-06T23:57:46.782Z,13.57
